N211TS EGCC-EINN
Flight info
| Callsign | N211TS |
|---|---|
| Flight time | N/A |
| Altitude | 36000 |
| Route | ASMIM L975 WAL L10 PENIL M144 BAGSO DCT PELIG DCT DIGAN DIGAN2E |
| Aircraft | A320/M-SDE3FGHIRWY/LB1 |
Departure
| Time | N/A |
|---|---|
| Airport | Manchester Airport (EGCC) |
Arrival
| Time | 2026-05-03 20:20 |
|---|---|
| Airport | Shannon Airport (EINN) |
| Time | Latitude | Longitude | Altitude | Speed | Heading |
|---|---|---|---|---|---|
| 2026-05-03 20:15 | 52.57837 | -9.18474 | 5545 ft | 196 kts | 50° |
| 2026-05-03 20:15 | 52.58692 | -9.16707 | 4962 ft | 198 kts | 50° |
| 2026-05-03 20:15 | 52.59543 | -9.14950 | 4423 ft | 196 kts | 50° |
| 2026-05-03 20:15 | 52.60386 | -9.13203 | 3882 ft | 194 kts | 50° |
| 2026-05-03 20:16 | 52.61220 | -9.11465 | 3341 ft | 193 kts | 50° |
| 2026-05-03 20:16 | 52.62045 | -9.09739 | 2843 ft | 191 kts | 50° |
| 2026-05-03 20:16 | 52.62863 | -9.08020 | 2391 ft | 190 kts | 51° |
| 2026-05-03 20:16 | 52.63674 | -9.06312 | 1979 ft | 189 kts | 50° |
| 2026-05-03 20:17 | 52.64445 | -9.04673 | 1667 ft | 175 kts | 50° |
| 2026-05-03 20:17 | 52.65151 | -9.03175 | 1442 ft | 159 kts | 50° |
| 2026-05-03 20:17 | 52.65796 | -9.01810 | 1219 ft | 142 kts | 50° |
| 2026-05-03 20:17 | 52.66374 | -9.00586 | 1032 ft | 129 kts | 50° |
| 2026-05-03 20:18 | 52.66911 | -8.99451 | 845 ft | 122 kts | 50° |
| 2026-05-03 20:18 | 52.67429 | -8.98354 | 690 ft | 121 kts | 49° |
| 2026-05-03 20:18 | 52.67955 | -8.97259 | 550 ft | 123 kts | 49° |
| 2026-05-03 20:18 | 52.68477 | -8.96131 | 385 ft | 124 kts | 50° |
| 2026-05-03 20:19 | 52.69005 | -8.95019 | 219 ft | 125 kts | 49° |
| 2026-05-03 20:19 | 52.69535 | -8.93895 | 48 ft | 119 kts | 50° |
| 2026-05-03 20:19 | 52.69966 | -8.92991 | 39 ft | 81 kts | 52° |
| 2026-05-03 20:19 | 52.70253 | -8.92383 | 33 ft | 57 kts | 52° |
| 2026-05-03 20:20 | 52.70460 | -8.91942 | 32 ft | 45 kts | 52° |
| 2026-05-03 20:20 | 52.70621 | -8.91602 | 28 ft | 31 kts | 51° |
| 2026-05-03 20:20 | 52.70744 | -8.91347 | 28 ft | 25 kts | 52° |
| 2026-05-03 20:20 | 52.70776 | -8.91198 | 25 ft | 14 kts | 117° |
| 2026-05-03 20:21 | 52.70665 | -8.91136 | 24 ft | 20 kts | 169° |
| 2026-05-03 20:21 | 52.70509 | -8.91094 | 24 ft | 26 kts | 170° |
| 2026-05-03 20:21 | 52.70326 | -8.91039 | 23 ft | 24 kts | 169° |
| 2026-05-03 20:21 | 52.70181 | -8.91017 | 23 ft | 23 kts | 193° |
| 2026-05-03 20:22 | 52.70012 | -8.91110 | 23 ft | 28 kts | 199° |
| 2026-05-03 20:22 | 52.69811 | -8.91223 | 24 ft | 33 kts | 199° |
| 2026-05-03 20:22 | 52.69583 | -8.91348 | 23 ft | 32 kts | 198° |
| 2026-05-03 20:22 | 52.69435 | -8.91428 | 24 ft | 21 kts | 198° |
| 2026-05-03 20:23 | 52.69329 | -8.91486 | 23 ft | 12 kts | 198° |
| 2026-05-03 20:23 | 52.69259 | -8.91550 | 23 ft | 12 kts | 244° |
| 2026-05-03 20:23 | 52.69272 | -8.91631 | 25 ft | 5 kts | 276° |
| 2026-05-03 20:23 | 52.69251 | -8.91673 | 23 ft | 5 kts | 222° |
| 2026-05-03 20:24 | 52.69231 | -8.91702 | 23 ft | 4 kts | 221° |
| 2026-05-03 20:24 | 52.69230 | -8.91704 | 23 ft | 0 kts | 221° |